sensor_id;sensor_type;location;lat;lon;timestamp;pressure;altitude;pressure_sealevel;temperature;humidity
19259;BME280;9763;48.780;9.212;2022-09-27T00:00:40;96636.94;;;13.41;75.23
19259;BME280;9763;48.780;9.212;2022-09-27T00:04:10;96636.78;;;13.43;75.49
19259;BME280;9763;48.780;9.212;2022-09-27T00:07:35;96631.53;;;13.43;75.57
19259;BME280;9763;48.780;9.212;2022-09-27T00:11:02;96625.31;;;13.44;75.48
19259;BME280;9763;48.780;9.212;2022-09-27T00:14:26;96616.47;;;13.45;75.65
19259;BME280;9763;48.780;9.212;2022-09-27T00:17:50;96619.09;;;13.45;75.37
19259;BME280;9763;48.780;9.212;2022-09-27T00:21:14;96625.00;;;13.47;75.96
19259;BME280;9763;48.780;9.212;2022-09-27T00:24:38;96614.22;;;13.50;75.86
19259;BME280;9763;48.780;9.212;2022-09-27T00:28:03;96620.75;;;13.54;75.42
19259;BME280;9763;48.780;9.212;2022-09-27T00:31:28;96607.66;;;13.54;76.04
19259;BME280;9763;48.780;9.212;2022-09-27T00:34:53;96607.31;;;13.57;76.19
19259;BME280;9763;48.780;9.212;2022-09-27T00:38:17;96608.00;;;13.59;76.39
19259;BME280;9763;48.780;9.212;2022-09-27T00:41:41;96601.25;;;13.56;75.96
19259;BME280;9763;48.780;9.212;2022-09-27T00:45:12;96605.22;;;13.52;76.38
19259;BME280;9763;48.780;9.212;2022-09-27T00:48:38;96600.13;;;13.51;76.63
19259;BME280;9763;48.780;9.212;2022-09-27T00:52:06;96603.38;;;13.53;76.72
19259;BME280;9763;48.780;9.212;2022-09-27T00:55:35;96594.38;;;13.55;77.23
19259;BME280;9763;48.780;9.212;2022-09-27T00:59:05;96589.31;;;13.62;76.91
19259;BME280;9763;48.780;9.212;2022-09-27T01:02:32;96586.53;;;13.63;76.54
19259;BME280;9763;48.780;9.212;2022-09-27T01:05:59;96591.13;;;13.61;77.03
19259;BME280;9763;48.780;9.212;2022-09-27T01:09:24;96591.94;;;13.62;77.04
19259;BME280;9763;48.780;9.212;2022-09-27T01:12:55;96590.63;;;13.66;77.10
19259;BME280;9763;48.780;9.212;2022-09-27T01:16:29;96599.47;;;13.65;76.98
19259;BME280;9763;48.780;9.212;2022-09-27T01:24:44;96601.09;;;13.66;77.68
19259;BME280;9763;48.780;9.212;2022-09-27T01:28:20;96595.69;;;13.67;77.46
19259;BME280;9763;48.780;9.212;2022-09-27T01:31:51;96594.56;;;13.70;77.37
19259;BME280;9763;48.780;9.212;2022-09-27T01:35:20;96596.84;;;13.73;77.45
19259;BME280;9763;48.780;9.212;2022-09-27T01:39:12;96583.44;;;13.76;77.45
19259;BME280;9763;48.780;9.212;2022-09-27T01:43:07;96575.22;;;13.79;77.78
19259;BME280;9763;48.780;9.212;2022-09-27T01:46:37;96582.28;;;13.87;77.41
19259;BME280;9763;48.780;9.212;2022-09-27T01:50:14;96583.25;;;13.86;77.23
19259;BME280;9763;48.780;9.212;2022-09-27T01:53:41;96583.56;;;13.83;77.76
19259;BME280;9763;48.780;9.212;2022-09-27T01:57:41;96583.25;;;13.86;77.79
19259;BME280;9763;48.780;9.212;2022-09-27T02:01:13;96586.53;;;13.88;77.63
19259;BME280;9763;48.780;9.212;2022-09-27T02:04:40;96586.34;;;13.89;77.85
19259;BME280;9763;48.780;9.212;2022-09-27T02:08:20;96589.78;;;13.90;77.77
19259;BME280;9763;48.780;9.212;2022-09-27T02:11:51;96595.38;;;13.95;78.43
19259;BME280;9763;48.780;9.212;2022-09-27T02:15:19;96593.09;;;14.00;78.26
19259;BME280;9763;48.780;9.212;2022-09-27T02:19:07;96604.03;;;14.03;78.61
19259;BME280;9763;48.780;9.212;2022-09-27T02:22:36;96606.50;;;14.05;78.30
19259;BME280;9763;48.780;9.212;2022-09-27T02:26:07;96618.81;;;14.04;77.92
19259;BME280;9763;48.780;9.212;2022-09-27T02:29:42;96626.81;;;14.03;77.53
19259;BME280;9763;48.780;9.212;2022-09-27T02:33:09;96632.25;;;14.01;78.06
19259;BME280;9763;48.780;9.212;2022-09-27T02:36:34;96635.06;;;14.00;77.97
19259;BME280;9763;48.780;9.212;2022-09-27T02:39:59;96624.38;;;13.93;77.25
19259;BME280;9763;48.780;9.212;2022-09-27T02:43:30;96627.34;;;13.82;76.80
19259;BME280;9763;48.780;9.212;2022-09-27T02:47:12;96638.47;;;13.68;77.46
19259;BME280;9763;48.780;9.212;2022-09-27T02:51:06;96627.63;;;13.55;77.48
19259;BME280;9763;48.780;9.212;2022-09-27T02:54:46;96632.72;;;13.48;77.96
19259;BME280;9763;48.780;9.212;2022-09-27T02:58:46;96641.38;;;13.41;77.76
19259;BME280;9763;48.780;9.212;2022-09-27T03:02:31;96653.31;;;13.35;77.71
19259;BME280;9763;48.780;9.212;2022-09-27T03:06:33;96656.75;;;13.27;78.06
19259;BME280;9763;48.780;9.212;2022-09-27T03:09:57;96648.69;;;13.21;77.75
19259;BME280;9763;48.780;9.212;2022-09-27T03:13:21;96663.25;;;13.15;77.75
19259;BME280;9763;48.780;9.212;2022-09-27T03:16:47;96665.19;;;13.13;77.76
19259;BME280;9763;48.780;9.212;2022-09-27T03:20:42;96668.13;;;13.10;78.32
19259;BME280;9763;48.780;9.212;2022-09-27T03:24:10;96673.34;;;13.10;78.32
19259;BME280;9763;48.780;9.212;2022-09-27T03:27:34;96675.00;;;13.11;78.14
19259;BME280;9763;48.780;9.212;2022-09-27T03:30:58;96682.69;;;13.13;78.42
19259;BME280;9763;48.780;9.212;2022-09-27T03:34:52;96684.03;;;13.17;78.40
19259;BME280;9763;48.780;9.212;2022-09-27T03:38:16;96691.59;;;13.20;78.70
19259;BME280;9763;48.780;9.212;2022-09-27T03:41:40;96686.34;;;13.20;78.15
19259;BME280;9763;48.780;9.212;2022-09-27T03:45:05;96688.81;;;13.21;77.95
19259;BME280;9763;48.780;9.212;2022-09-27T03:48:29;96684.72;;;13.19;78.61
19259;BME280;9763;48.780;9.212;2022-09-27T03:51:55;96692.41;;;13.20;78.70
19259;BME280;9763;48.780;9.212;2022-09-27T03:55:19;96687.16;;;13.20;78.58
19259;BME280;9763;48.780;9.212;2022-09-27T03:58:43;96676.84;;;13.19;78.18
19259;BME280;9763;48.780;9.212;2022-09-27T04:02:08;96689.13;;;13.18;78.77
19259;BME280;9763;48.780;9.212;2022-09-27T04:05:55;96684.56;;;13.20;78.41
19259;BME280;9763;48.780;9.212;2022-09-27T04:09:29;96687.84;;;13.22;78.99
19259;BME280;9763;48.780;9.212;2022-09-27T04:12:55;96684.25;;;13.23;78.85
19259;BME280;9763;48.780;9.212;2022-09-27T04:16:22;96692.78;;;13.25;78.77
19259;BME280;9763;48.780;9.212;2022-09-27T04:20:10;96691.94;;;13.25;78.46
19259;BME280;9763;48.780;9.212;2022-09-27T04:23:37;96697.84;;;13.27;79.00
19259;BME280;9763;48.780;9.212;2022-09-27T04:27:03;96700.28;;;13.28;78.70
19259;BME280;9763;48.780;9.212;2022-09-27T04:30:27;96703.72;;;13.29;79.06
19259;BME280;9763;48.780;9.212;2022-09-27T04:34:04;96695.03;;;13.28;79.27
19259;BME280;9763;48.780;9.212;2022-09-27T04:37:30;96700.97;;;13.30;79.06
19259;BME280;9763;48.780;9.212;2022-09-27T04:40:56;96700.13;;;13.30;78.91
19259;BME280;9763;48.780;9.212;2022-09-27T04:44:29;96705.38;;;13.30;79.33
19259;BME280;9763;48.780;9.212;2022-09-27T04:47:53;96703.56;;;13.30;78.93
19259;BME280;9763;48.780;9.212;2022-09-27T04:51:17;96715.53;;;13.33;79.24
19259;BME280;9763;48.780;9.212;2022-09-27T04:54:42;96722.28;;;13.36;79.24
19259;BME280;9763;48.780;9.212;2022-09-27T04:58:07;96718.69;;;13.37;79.08
19259;BME280;9763;48.780;9.212;2022-09-27T05:01:32;96729.69;;;13.40;79.33
19259;BME280;9763;48.780;9.212;2022-09-27T05:05:08;96730.66;;;13.39;78.96
19259;BME280;9763;48.780;9.212;2022-09-27T05:08:35;96742.59;;;13.42;79.16
19259;BME280;9763;48.780;9.212;2022-09-27T05:12:15;96745.22;;;13.42;79.30
19259;BME280;9763;48.780;9.212;2022-09-27T05:15:47;96758.16;;;13.43;79.63
19259;BME280;9763;48.780;9.212;2022-09-27T05:19:44;96757.84;;;13.46;79.39
19259;BME280;9763;48.780;9.212;2022-09-27T05:23:23;96761.13;;;13.48;79.45
19259;BME280;9763;48.780;9.212;2022-09-27T05:26:47;96755.06;;;13.48;78.82
19259;BME280;9763;48.780;9.212;2022-09-27T05:30:11;96764.75;;;13.47;79.36
19259;BME280;9763;48.780;9.212;2022-09-27T05:33:48;96769.16;;;13.47;79.04
19259;BME280;9763;48.780;9.212;2022-09-27T05:37:28;96782.25;;;13.47;78.91
19259;BME280;9763;48.780;9.212;2022-09-27T05:40:54;96789.16;;;13.48;79.10
19259;BME280;9763;48.780;9.212;2022-09-27T05:44:19;96801.13;;;13.50;79.38
19259;BME280;9763;48.780;9.212;2022-09-27T05:47:53;96797.00;;;13.48;79.50
19259;BME280;9763;48.780;9.212;2022-09-27T05:51:18;96810.28;;;13.46;79.18
19259;BME280;9763;48.780;9.212;2022-09-27T05:54:44;96804.34;;;13.44;79.22
19259;BME280;9763;48.780;9.212;2022-09-27T05:58:10;96815.16;;;13.41;79.28
19259;BME280;9763;48.780;9.212;2022-09-27T06:01:41;96815.63;;;13.37;79.00
19259;BME280;9763;48.780;9.212;2022-09-27T06:05:30;96821.84;;;13.36;79.48
19259;BME280;9763;48.780;9.212;2022-09-27T06:08:57;96824.63;;;13.34;79.02
19259;BME280;9763;48.780;9.212;2022-09-27T06:12:24;96842.81;;;13.36;79.77
19259;BME280;9763;48.780;9.212;2022-09-27T06:15:48;96841.84;;;13.37;79.36
19259;BME280;9763;48.780;9.212;2022-09-27T06:19:12;96840.72;;;13.39;79.79
19259;BME280;9763;48.780;9.212;2022-09-27T06:22:37;96842.84;;;13.44;79.23
19259;BME280;9763;48.780;9.212;2022-09-27T06:26:05;96851.38;;;13.46;79.41
19259;BME280;9763;48.780;9.212;2022-09-27T06:29:46;96846.81;;;13.48;80.00
19259;BME280;9763;48.780;9.212;2022-09-27T06:33:24;96843.72;;;13.52;80.03
19259;BME280;9763;48.780;9.212;2022-09-27T06:36:51;96846.84;;;13.56;79.95
19259;BME280;9763;48.780;9.212;2022-09-27T06:40:15;96852.59;;;13.59;80.24
19259;BME280;9763;48.780;9.212;2022-09-27T06:43:58;96860.50;;;13.67;80.42
19259;BME280;9763;48.780;9.212;2022-09-27T06:47:42;96871.34;;;13.73;80.47
19259;BME280;9763;48.780;9.212;2022-09-27T06:51:30;96870.38;;;13.74;79.10
19259;BME280;9763;48.780;9.212;2022-09-27T06:54:54;96869.69;;;13.72;79.29
19259;BME280;9763;48.780;9.212;2022-09-27T06:58:18;96878.22;;;13.74;79.20
19259;BME280;9763;48.780;9.212;2022-09-27T07:02:25;96885.47;;;13.80;79.88
19259;BME280;9763;48.780;9.212;2022-09-27T07:06:17;96881.72;;;13.90;79.88
19259;BME280;9763;48.780;9.212;2022-09-27T07:09:45;96884.34;;;13.90;79.66
19259;BME280;9763;48.780;9.212;2022-09-27T07:13:10;96887.13;;;13.89;79.54
19259;BME280;9763;48.780;9.212;2022-09-27T07:16:35;96889.13;;;13.87;79.53
19259;BME280;9763;48.780;9.212;2022-09-27T07:19:59;96901.88;;;13.90;79.80
19259;BME280;9763;48.780;9.212;2022-09-27T07:23:25;96901.13;;;13.97;79.90
19259;BME280;9763;48.780;9.212;2022-09-27T07:26:51;96910.03;;;14.13;79.70
19259;BME280;9763;48.780;9.212;2022-09-27T07:30:17;96909.09;;;14.30;80.67
19259;BME280;9763;48.780;9.212;2022-09-27T07:33:41;96913.75;;;14.44;80.41
19259;BME280;9763;48.780;9.212;2022-09-27T07:37:05;96910.66;;;14.49;79.79
19259;BME280;9763;48.780;9.212;2022-09-27T07:40:36;96926.56;;;14.47;79.84
19259;BME280;9763;48.780;9.212;2022-09-27T07:44:00;96928.69;;;14.44;79.39
19259;BME280;9763;48.780;9.212;2022-09-27T07:47:26;96932.44;;;14.41;77.42
19259;BME280;9763;48.780;9.212;2022-09-27T07:51:02;96945.22;;;14.36;79.07
19259;BME280;9763;48.780;9.212;2022-09-27T07:54:53;96943.63;;;14.43;79.19
19259;BME280;9763;48.780;9.212;2022-09-27T07:58:34;96938.94;;;14.71;80.64
19259;BME280;9763;48.780;9.212;2022-09-27T08:02:00;96941.56;;;15.76;83.57
19259;BME280;9763;48.780;9.212;2022-09-27T08:05:25;96940.34;;;16.34;82.95
19259;BME280;9763;48.780;9.212;2022-09-27T08:08:49;96943.13;;;17.40;83.96
19259;BME280;9763;48.780;9.212;2022-09-27T08:12:15;96947.84;;;18.12;80.14
19259;BME280;9763;48.780;9.212;2022-09-27T08:15:40;96956.63;;;17.97;77.71
19259;BME280;9763;48.780;9.212;2022-09-27T08:19:04;96961.09;;;17.59;75.61
19259;BME280;9763;48.780;9.212;2022-09-27T08:22:41;96966.84;;;17.25;75.47
19259;BME280;9763;48.780;9.212;2022-09-27T08:26:27;96962.44;;;17.18;75.56
19259;BME280;9763;48.780;9.212;2022-09-27T08:29:57;96973.31;;;17.75;74.73
19259;BME280;9763;48.780;9.212;2022-09-27T08:33:24;96973.34;;;18.99;75.66
19259;BME280;9763;48.780;9.212;2022-09-27T08:36:54;96957.13;;;20.35;71.84
19259;BME280;9763;48.780;9.212;2022-09-27T08:40:20;96964.34;;;21.75;69.73
19259;BME280;9763;48.780;9.212;2022-09-27T08:44:03;96967.84;;;21.95;64.82
19259;BME280;9763;48.780;9.212;2022-09-27T08:47:37;96967.94;;;21.01;62.31
19259;BME280;9763;48.780;9.212;2022-09-27T08:51:06;96976.13;;;20.11;62.87
19259;BME280;9763;48.780;9.212;2022-09-27T08:54:35;96980.47;;;19.41;64.00
19259;BME280;9763;48.780;9.212;2022-09-27T08:58:00;96971.00;;;18.90;62.98
19259;BME280;9763;48.780;9.212;2022-09-27T09:01:25;96984.00;;;18.41;64.24
19259;BME280;9763;48.780;9.212;2022-09-27T09:05:19;96991.94;;;17.96;65.06
19259;BME280;9763;48.780;9.212;2022-09-27T09:09:03;96996.88;;;17.62;66.32
19259;BME280;9763;48.780;9.212;2022-09-27T09:12:48;96999.88;;;17.36;66.66
19259;BME280;9763;48.780;9.212;2022-09-27T09:16:31;96995.28;;;17.30;67.52
19259;BME280;9763;48.780;9.212;2022-09-27T09:20:15;96998.75;;;17.31;67.66
19259;BME280;9763;48.780;9.212;2022-09-27T09:24:10;97000.31;;;17.85;68.10
19259;BME280;9763;48.780;9.212;2022-09-27T09:27:49;96989.22;;;19.21;66.78
19259;BME280;9763;48.780;9.212;2022-09-27T09:31:34;96968.44;;;20.23;64.54
19259;BME280;9763;48.780;9.212;2022-09-27T09:35:05;96985.44;;;20.35;63.59
19259;BME280;9763;48.780;9.212;2022-09-27T09:38:38;96986.47;;;20.06;61.98
19259;BME280;9763;48.780;9.212;2022-09-27T09:42:10;96990.25;;;19.90;61.58
19259;BME280;9763;48.780;9.212;2022-09-27T09:45:41;96979.69;;;19.48;59.11
19259;BME280;9763;48.780;9.212;2022-09-27T09:49:17;96976.81;;;19.42;61.92
19259;BME280;9763;48.780;9.212;2022-09-27T09:52:47;96979.66;;;19.90;61.13
19259;BME280;9763;48.780;9.212;2022-09-27T09:56:23;96969.91;;;21.47;63.44
19259;BME280;9763;48.780;9.212;2022-09-27T09:59:56;96950.13;;;22.98;59.98
19259;BME280;9763;48.780;9.212;2022-09-27T10:03:22;96961.09;;;24.39;57.60
19259;BME280;9763;48.780;9.212;2022-09-27T10:06:46;96945.38;;;24.06;57.03
19259;BME280;9763;48.780;9.212;2022-09-27T10:10:15;96939.69;;;23.28;55.66
19259;BME280;9763;48.780;9.212;2022-09-27T10:13:49;96941.91;;;23.31;57.68
19259;BME280;9763;48.780;9.212;2022-09-27T10:17:19;96944.41;;;24.44;58.92
19259;BME280;9763;48.780;9.212;2022-09-27T10:20:51;96941.13;;;25.08;55.36
19259;BME280;9763;48.780;9.212;2022-09-27T10:24:18;96943.44;;;24.38;55.53
19259;BME280;9763;48.780;9.212;2022-09-27T10:28:04;96949.78;;;23.19;54.64
19259;BME280;9763;48.780;9.212;2022-09-27T10:31:35;96949.81;;;22.17;56.19
19259;BME280;9763;48.780;9.212;2022-09-27T10:35:34;96950.84;;;21.10;56.64
19259;BME280;9763;48.780;9.212;2022-09-27T10:39:03;96960.41;;;20.37;57.77
19259;BME280;9763;48.780;9.212;2022-09-27T10:42:36;96956.56;;;19.77;57.89
19259;BME280;9763;48.780;9.212;2022-09-27T10:46:12;96960.75;;;19.44;57.87
19259;BME280;9763;48.780;9.212;2022-09-27T10:49:41;96946.78;;;19.29;59.04
19259;BME280;9763;48.780;9.212;2022-09-27T10:53:36;96944.50;;;19.26;59.00
19259;BME280;9763;48.780;9.212;2022-09-27T10:57:18;96939.16;;;19.19;59.19
19259;BME280;9763;48.780;9.212;2022-09-27T11:00:57;96930.97;;;19.14;59.74
19259;BME280;9763;48.780;9.212;2022-09-27T11:04:31;96934.25;;;19.16;60.00
19259;BME280;9763;48.780;9.212;2022-09-27T11:07:57;96923.84;;;19.15;59.46
19259;BME280;9763;48.780;9.212;2022-09-27T11:11:36;96926.38;;;19.01;59.84
19259;BME280;9763;48.780;9.212;2022-09-27T11:15:04;96915.09;;;18.93;60.36
19259;BME280;9763;48.780;9.212;2022-09-27T11:18:47;96915.16;;;18.99;60.39
19259;BME280;9763;48.780;9.212;2022-09-27T11:26:44;96908.56;;;18.89;60.25
19259;BME280;9763;48.780;9.212;2022-09-27T11:30:16;96905.84;;;18.82;60.20
19259;BME280;9763;48.780;9.212;2022-09-27T11:34:09;96903.72;;;18.71;60.19
19259;BME280;9763;48.780;9.212;2022-09-27T11:37:45;96903.63;;;18.64;60.10
19259;BME280;9763;48.780;9.212;2022-09-27T11:41:38;96892.41;;;18.62;60.61
19259;BME280;9763;48.780;9.212;2022-09-27T11:45:25;96887.41;;;18.53;58.16
19259;BME280;9763;48.780;9.212;2022-09-27T11:49:49;96896.28;;;18.45;58.58
19259;BME280;9763;48.780;9.212;2022-09-27T11:53:32;96906.44;;;18.48;58.70
19259;BME280;9763;48.780;9.212;2022-09-27T11:57:14;96899.97;;;18.51;59.45
19259;BME280;9763;48.780;9.212;2022-09-27T12:00:57;96905.84;;;18.46;59.36
19259;BME280;9763;48.780;9.212;2022-09-27T12:04:59;96909.56;;;18.37;59.37
19259;BME280;9763;48.780;9.212;2022-09-27T12:08:38;96933.47;;;18.14;57.78
19259;BME280;9763;48.780;9.212;2022-09-27T12:12:10;96950.69;;;17.81;58.07
19259;BME280;9763;48.780;9.212;2022-09-27T12:15:41;96939.78;;;17.46;58.96
19259;BME280;9763;48.780;9.212;2022-09-27T12:19:17;96958.16;;;17.17;58.82
19259;BME280;9763;48.780;9.212;2022-09-27T12:22:59;96958.03;;;16.87;58.86
19259;BME280;9763;48.780;9.212;2022-09-27T12:26:49;96959.94;;;16.40;59.48
19259;BME280;9763;48.780;9.212;2022-09-27T12:30:14;96967.31;;;16.05;60.94
19259;BME280;9763;48.780;9.212;2022-09-27T12:33:47;96959.16;;;15.68;60.72
19259;BME280;9763;48.780;9.212;2022-09-27T12:37:18;96956.69;;;15.42;63.07
19259;BME280;9763;48.780;9.212;2022-09-27T12:40:48;96948.63;;;15.35;65.22
19259;BME280;9763;48.780;9.212;2022-09-27T12:44:18;96946.69;;;15.29;66.90
19259;BME280;9763;48.780;9.212;2022-09-27T12:48:04;96946.03;;;15.27;68.74
19259;BME280;9763;48.780;9.212;2022-09-27T12:51:37;96939.78;;;15.28;69.06
19259;BME280;9763;48.780;9.212;2022-09-27T12:55:39;96942.22;;;15.54;70.59
19259;BME280;9763;48.780;9.212;2022-09-27T12:59:39;96938.88;;;15.84;72.13
19259;BME280;9763;48.780;9.212;2022-09-27T13:03:40;96930.16;;;16.31;73.32
19259;BME280;9763;48.780;9.212;2022-09-27T13:07:21;96929.31;;;16.92;73.66
19259;BME280;9763;48.780;9.212;2022-09-27T13:11:07;96922.59;;;17.13;72.43
19259;BME280;9763;48.780;9.212;2022-09-27T13:14:43;96923.00;;;17.24;71.87
19259;BME280;9763;48.780;9.212;2022-09-27T13:18:31;96918.56;;;17.25;71.96
19259;BME280;9763;48.780;9.212;2022-09-27T13:22:36;96916.19;;;17.30;71.12
19259;BME280;9763;48.780;9.212;2022-09-27T13:26:42;96913.22;;;17.48;69.92
19259;BME280;9763;48.780;9.212;2022-09-27T13:30:44;96922.88;;;17.55;69.15
19259;BME280;9763;48.780;9.212;2022-09-27T13:34:37;96904.84;;;17.44;68.52
19259;BME280;9763;48.780;9.212;2022-09-27T13:38:21;96927.06;;;17.27;68.58
19259;BME280;9763;48.780;9.212;2022-09-27T13:42:08;96906.91;;;16.97;67.43
19259;BME280;9763;48.780;9.212;2022-09-27T13:45:41;96917.34;;;16.90;67.44
19259;BME280;9763;48.780;9.212;2022-09-27T13:49:17;96915.41;;;16.84;67.54
19259;BME280;9763;48.780;9.212;2022-09-27T13:53:11;96917.78;;;16.71;67.83
19259;BME280;9763;48.780;9.212;2022-09-27T13:56:52;96906.16;;;16.65;67.57
19259;BME280;9763;48.780;9.212;2022-09-27T14:00:21;96899.72;;;16.60;67.44
19259;BME280;9763;48.780;9.212;2022-09-27T14:03:54;96888.53;;;16.57;68.32
19259;BME280;9763;48.780;9.212;2022-09-27T14:07:25;96894.34;;;16.53;67.37
19259;BME280;9763;48.780;9.212;2022-09-27T14:10:53;96895.91;;;16.39;67.29
19259;BME280;9763;48.780;9.212;2022-09-27T14:14:23;96907.72;;;16.12;67.98
19259;BME280;9763;48.780;9.212;2022-09-27T14:17:54;96929.88;;;15.79;68.30
19259;BME280;9763;48.780;9.212;2022-09-27T14:21:27;96914.94;;;15.47;69.59
19259;BME280;9763;48.780;9.212;2022-09-27T14:25:25;96921.19;;;15.22;69.90
19259;BME280;9763;48.780;9.212;2022-09-27T14:28:49;96924.50;;;15.07;70.84
19259;BME280;9763;48.780;9.212;2022-09-27T14:32:23;96928.78;;;14.92;71.41
19259;BME280;9763;48.780;9.212;2022-09-27T14:35:56;96912.81;;;14.77;71.67
19259;BME280;9763;48.780;9.212;2022-09-27T14:39:40;96916.94;;;14.80;73.31
19259;BME280;9763;48.780;9.212;2022-09-27T14:43:23;96916.13;;;14.96;73.95
19259;BME280;9763;48.780;9.212;2022-09-27T14:46:47;96913.16;;;15.15;74.53
19259;BME280;9763;48.780;9.212;2022-09-27T14:50:19;96910.88;;;15.20;75.17
19259;BME280;9763;48.780;9.212;2022-09-27T14:53:48;96917.59;;;15.23;75.21
19259;BME280;9763;48.780;9.212;2022-09-27T14:57:14;96918.25;;;15.25;75.56
19259;BME280;9763;48.780;9.212;2022-09-27T15:00:46;96913.31;;;15.22;75.52
19259;BME280;9763;48.780;9.212;2022-09-27T15:04:13;96926.81;;;15.19;75.64
19259;BME280;9763;48.780;9.212;2022-09-27T15:07:37;96905.44;;;15.22;76.22
19259;BME280;9763;48.780;9.212;2022-09-27T15:11:05;96903.31;;;15.17;76.29
19259;BME280;9763;48.780;9.212;2022-09-27T15:14:32;96913.50;;;15.12;75.86
19259;BME280;9763;48.780;9.212;2022-09-27T15:18:30;96918.09;;;15.02;75.70
19259;BME280;9763;48.780;9.212;2022-09-27T15:21:54;96923.19;;;14.95;75.44
19259;BME280;9763;48.780;9.212;2022-09-27T15:25:24;96914.50;;;14.95;76.00
19259;BME280;9763;48.780;9.212;2022-09-27T15:28:55;96933.88;;;15.02;76.17
19259;BME280;9763;48.780;9.212;2022-09-27T15:32:22;96943.88;;;15.06;76.51
19259;BME280;9763;48.780;9.212;2022-09-27T15:35:50;96931.56;;;15.07;76.52
19259;BME280;9763;48.780;9.212;2022-09-27T15:39:18;96932.25;;;15.09;77.02
19259;BME280;9763;48.780;9.212;2022-09-27T15:42:54;96935.84;;;15.16;76.81
19259;BME280;9763;48.780;9.212;2022-09-27T15:46:36;96935.66;;;15.26;77.16
19259;BME280;9763;48.780;9.212;2022-09-27T15:50:35;96935.19;;;15.30;77.57
19259;BME280;9763;48.780;9.212;2022-09-27T15:53:59;96930.09;;;15.21;76.76
19259;BME280;9763;48.780;9.212;2022-09-27T15:57:28;96938.28;;;15.01;75.73
19259;BME280;9763;48.780;9.212;2022-09-27T16:00:55;96934.84;;;14.85;75.97
19259;BME280;9763;48.780;9.212;2022-09-27T16:04:20;96936.16;;;14.72;76.06
19259;BME280;9763;48.780;9.212;2022-09-27T16:07:43;96936.28;;;14.63;76.22
19259;BME280;9763;48.780;9.212;2022-09-27T16:11:14;96940.19;;;14.51;75.74
19259;BME280;9763;48.780;9.212;2022-09-27T16:14:38;96944.13;;;14.47;75.97
19259;BME280;9763;48.780;9.212;2022-09-27T16:18:02;96945.94;;;14.46;76.30
19259;BME280;9763;48.780;9.212;2022-09-27T16:21:27;96945.56;;;14.41;76.32
19259;BME280;9763;48.780;9.212;2022-09-27T16:24:51;96942.91;;;14.33;76.11
19259;BME280;9763;48.780;9.212;2022-09-27T16:28:15;96957.00;;;14.32;75.72
19259;BME280;9763;48.780;9.212;2022-09-27T16:31:39;96965.69;;;14.32;76.38
19259;BME280;9763;48.780;9.212;2022-09-27T16:35:04;96958.97;;;14.30;76.18
19259;BME280;9763;48.780;9.212;2022-09-27T16:38:29;96951.53;;;14.25;76.12
19259;BME280;9763;48.780;9.212;2022-09-27T16:41:53;96947.31;;;14.24;76.35
19259;BME280;9763;48.780;9.212;2022-09-27T16:45:16;96950.25;;;14.21;75.97
19259;BME280;9763;48.780;9.212;2022-09-27T16:48:41;96953.31;;;14.17;75.33
19259;BME280;9763;48.780;9.212;2022-09-27T16:52:04;96947.41;;;14.15;75.96
19259;BME280;9763;48.780;9.212;2022-09-27T16:55:28;96953.16;;;14.10;76.08
19259;BME280;9763;48.780;9.212;2022-09-27T16:58:51;96948.88;;;14.09;75.96
19259;BME280;9763;48.780;9.212;2022-09-27T17:02:15;96952.78;;;14.05;75.21
19259;BME280;9763;48.780;9.212;2022-09-27T17:05:39;96952.63;;;14.06;75.53
19259;BME280;9763;48.780;9.212;2022-09-27T17:09:03;96960.88;;;14.12;74.68
19259;BME280;9763;48.780;9.212;2022-09-27T17:12:30;96967.44;;;14.16;74.46
19259;BME280;9763;48.780;9.212;2022-09-27T17:15:53;96956.78;;;14.17;74.94
19259;BME280;9763;48.780;9.212;2022-09-27T17:19:17;96961.88;;;14.19;73.89
19259;BME280;9763;48.780;9.212;2022-09-27T17:22:41;96970.72;;;14.18;73.73
19259;BME280;9763;48.780;9.212;2022-09-27T17:26:11;96971.38;;;14.20;73.99
19259;BME280;9763;48.780;9.212;2022-09-27T17:29:37;96961.25;;;14.25;73.20
19259;BME280;9763;48.780;9.212;2022-09-27T17:33:01;96966.16;;;14.28;73.25
19259;BME280;9763;48.780;9.212;2022-09-27T17:36:27;96976.50;;;14.29;72.34
19259;BME280;9763;48.780;9.212;2022-09-27T17:39:52;96965.03;;;14.30;72.20
19259;BME280;9763;48.780;9.212;2022-09-27T17:43:15;96953.25;;;14.34;72.12
19259;BME280;9763;48.780;9.212;2022-09-27T17:46:41;96947.00;;;14.35;72.15
19259;BME280;9763;48.780;9.212;2022-09-27T17:50:05;96962.09;;;14.33;72.15
19259;BME280;9763;48.780;9.212;2022-09-27T17:53:47;96966.84;;;14.30;71.76
19259;BME280;9763;48.780;9.212;2022-09-27T17:57:10;96967.97;;;14.27;71.92
19259;BME280;9763;48.780;9.212;2022-09-27T18:00:34;96980.25;;;14.27;71.63
19259;BME280;9763;48.780;9.212;2022-09-27T18:04:00;96982.41;;;14.23;72.00
19259;BME280;9763;48.780;9.212;2022-09-27T18:07:26;96990.72;;;14.19;71.74
19259;BME280;9763;48.780;9.212;2022-09-27T18:10:50;96989.66;;;14.03;72.81
19259;BME280;9763;48.780;9.212;2022-09-27T18:14:14;96994.31;;;13.84;72.79
19259;BME280;9763;48.780;9.212;2022-09-27T18:17:38;96998.19;;;13.72;73.63
19259;BME280;9763;48.780;9.212;2022-09-27T18:21:05;96993.50;;;13.57;72.99
19259;BME280;9763;48.780;9.212;2022-09-27T18:24:30;96998.00;;;13.47;73.80
19259;BME280;9763;48.780;9.212;2022-09-27T18:27:54;97007.28;;;13.42;74.72
19259;BME280;9763;48.780;9.212;2022-09-27T18:31:20;97015.09;;;13.33;74.55
19259;BME280;9763;48.780;9.212;2022-09-27T18:34:44;97003.25;;;13.29;75.24
19259;BME280;9763;48.780;9.212;2022-09-27T18:38:09;97004.69;;;13.24;75.36
19259;BME280;9763;48.780;9.212;2022-09-27T18:41:33;97005.59;;;13.15;75.38
19259;BME280;9763;48.780;9.212;2022-09-27T18:44:57;96998.97;;;13.11;75.75
19259;BME280;9763;48.780;9.212;2022-09-27T18:48:21;97007.00;;;13.09;75.35
19259;BME280;9763;48.780;9.212;2022-09-27T18:51:45;97001.06;;;13.07;75.45
19259;BME280;9763;48.780;9.212;2022-09-27T18:55:11;97004.66;;;13.06;75.74
19259;BME280;9763;48.780;9.212;2022-09-27T18:58:35;97009.06;;;13.06;75.57
19259;BME280;9763;48.780;9.212;2022-09-27T19:01:59;97011.03;;;13.04;76.01
19259;BME280;9763;48.780;9.212;2022-09-27T19:05:23;97016.09;;;13.05;75.40
19259;BME280;9763;48.780;9.212;2022-09-27T19:08:52;97014.84;;;13.09;75.38